Main page
METAR-TAF:

METAR-TAF

Airports :

Jaipur International Airport

Jaipur, India

latitude: 26-49N, longitude: 075-48E, elevation: 385 m

Current weather observation

The report was made 34 minutes ago, at 02:00 UTC
Calm wind
Temperature 11°C
Humidity 94%
Pressure 1021 hPa
Visibility: 1000 m
mist

METAR: VIJP 150200Z 00000KT 1000 R27/1700 BR NSC 11/10 Q1021 BECMG 0800 MIFG

Time: 08:04 (02:34 UTC)

Forecast

The report was made 34 minutes ago, at 02:00 UTC
Forecast valid from 15 at 03 UTC to 15 at 12 UTC
Wind 5 kt from the Northeast
Visibility: 1500 m
Few clouds at a height of 10000 ft
mist, haze
Becoming
from 15 at 05 UTC to 15 at 07 UTC
Wind 6 kt from the Northeast
Visibility: 3000 m
haze

TAF: VIJP 150200Z 1503/1512 05005KT 1500 BR HZ FEW100 BECMG 1505/1507 05006KT 3000 HZ

Weather observations and forecasts of more than 4000 airports (METAR and TAF reports).

The available stations are represented by yellow and red dots on the map.

Hover mouse over dot to see the name of the station.

Then click to see weather observations and forecasts.

To change the map : click on the green buttons with a black cross to zoom in, on the green button with a dash to zoom out, or on the green arrows for adjacent maps.


METAR-TAF: